Time;durP1;ratioP1;P1;durP2;ratioP2;P2;SDS_P1;SDS_P2;PMS_P1;PMS_P2;Temp;Humidity;BMP_temperature;BMP_pressure;BME280_temperature;BME280_humidity;BME280_pressure;Samples;Min_cycle;Max_cycle;Signal;HPM_P1;HPM_P2
2022/03/03 00:01:18;;;;;;;22.17;9.77;;;;;;;-8.24;52.26;99546.38;5118386;28;20119;-57
2022/03/03 00:03:49;;;;;;;26.55;10.63;;;;;;;-7.95;51.51;99537.59;5118629;28;20234;-56
2022/03/03 00:06:21;;;;;;;22.67;10.00;;;;;;;-8.41;51.18;99408.81;5118293;28;20119;-56
2022/03/03 00:08:52;;;;;;;15.48;7.70;;;;;;;-7.35;50.99;99531.75;5118346;28;20047;-57
2022/03/03 00:11:23;;;;;;;16.45;6.75;;;;;;;-7.03;50.19;99541.59;5118264;28;20051;-58
2022/03/03 00:13:54;;;;;;;12.00;6.20;;;;;;;-6.78;49.54;99527.38;5118159;28;20089;-57
2022/03/03 00:16:25;;;;;;;9.55;5.70;;;;;;;-6.51;48.75;99523.41;5117986;28;20294;-58
2022/03/03 00:18:56;;;;;;;9.32;5.20;;;;;;;-6.34;48.27;99523.19;5118362;28;20048;-58
2022/03/03 00:21:31;;;;;;;11.30;5.90;;;;;;;-6.54;48.09;99502.97;5118182;28;20075;-58
2022/03/03 00:24:02;;;;;;;40.25;15.02;;;;;;;-6.37;49.65;99530.69;5118235;28;20122;-58
2022/03/03 00:26:33;;;;;;;35.72;15.05;;;;;;;-6.03;50.55;99526.94;5118111;28;20063;-58
2022/03/03 00:29:04;;;;;;;63.35;27.13;;;;;;;-5.93;49.19;99508.63;5118091;28;20135;-59
2022/03/03 00:31:34;;;;;;;61.13;25.15;;;;;;;-5.52;49.75;99527.06;5117922;28;20082;-58
2022/03/03 00:34:05;;;;;;;47.50;22.05;;;;;;;-5.23;49.58;99526.41;5118301;28;20071;-58
2022/03/03 00:36:38;;;;;;;36.33;17.30;;;;;;;-5.30;49.29;99485.41;5118008;28;20106;-59
2022/03/03 00:39:09;;;;;;;38.38;15.75;;;;;;;-4.80;49.64;99532.97;5118030;28;20063;-59
2022/03/03 00:41:40;;;;;;;25.45;12.18;;;;;;;-4.88;48.31;99533.53;5118216;28;20061;-58
2022/03/03 00:44:11;;;;;;;25.15;11.30;;;;;;;-5.05;47.41;99545.69;5117917;28;20047;-58
2022/03/03 00:46:41;;;;;;;20.67;9.85;;;;;;;-5.24;47.40;99539.97;5117935;28;20058;-58
2022/03/03 00:49:12;;;;;;;21.00;7.93;;;;;;;-5.09;47.32;99544.75;5117954;28;20074;-58
2022/03/03 00:51:45;;;;;;;21.08;9.10;;;;;;;-4.88;47.87;99539.50;5121633;28;20131;-58
2022/03/03 00:54:16;;;;;;;15.93;7.72;;;;;;;-4.71;47.75;99537.53;5122125;28;20066;-59
2022/03/03 00:56:46;;;;;;;25.15;10.13;;;;;;;-4.49;47.19;99539.09;5122008;28;20079;-59
2022/03/03 00:59:17;;;;;;;16.70;8.25;;;;;;;-4.34;47.43;99529.38;5122419;28;20297;-59
2022/03/03 01:01:48;;;;;;;12.63;6.63;;;;;;;-4.27;46.50;99524.44;5122200;28;20044;-60
2022/03/03 01:04:20;;;;;;;12.63;5.88;;;;;;;-4.14;47.48;99540.19;5122156;28;20062;-59
2022/03/03 01:06:52;;;;;;;12.57;6.28;;;;;;;-4.05;46.79;99526.84;5122085;28;20047;-59
2022/03/03 01:09:23;;;;;;;13.75;5.70;;;;;;;-4.09;44.48;99525.03;5121590;28;20082;-59
2022/03/03 01:11:55;;;;;;;8.70;4.65;;;;;;;-3.99;45.71;99519.38;5121681;28;20119;-59
2022/03/03 01:14:25;;;;;;;7.25;4.32;;;;;;;-3.84;45.70;99510.41;5121531;28;20082;-59
2022/03/03 01:16:56;;;;;;;6.25;2.90;;;;;;;-3.67;46.75;99496.44;5121623;28;20380;-59
2022/03/03 01:19:27;;;;;;;6.65;3.85;;;;;;;-3.79;44.68;99455.28;5121642;28;20055;-59
2022/03/03 01:21:59;;;;;;;8.25;3.70;;;;;;;-3.31;44.38;99504.28;5121620;28;20055;-60
2022/03/03 01:24:31;;;;;;;9.20;3.92;;;;;;;-3.09;45.04;99505.72;5121449;28;20330;-59
2022/03/03 01:27:02;;;;;;;6.20;3.70;;;;;;;-2.85;45.38;99499.47;5121597;28;20054;-60
2022/03/03 01:29:33;;;;;;;2.95;1.90;;;;;;;-2.68;44.89;99505.88;5121420;28;20060;-60
2022/03/03 01:32:04;;;;;;;4.07;2.23;;;;;;;-2.84;43.61;99491.00;5121431;28;20185;-60
2022/03/03 01:34:35;;;;;;;4.75;2.63;;;;;;;-3.10;43.76;99463.06;5121808;28;20063;-59
2022/03/03 01:37:08;;;;;;;6.18;2.63;;;;;;;-3.15;42.94;99485.09;5121233;28;20047;-60
2022/03/03 01:39:39;;;;;;;5.00;2.75;;;;;;;-3.37;43.07;99487.91;5121117;28;20051;-59
2022/03/03 01:42:10;;;;;;;8.10;2.40;;;;;;;-3.62;43.53;99497.47;5121256;28;20318;-59
2022/03/03 01:44:44;;;;;;;4.03;2.15;;;;;;;-4.38;44.27;99400.00;5121111;28;20055;-58
2022/03/03 01:47:20;;;;;;;3.45;2.20;;;;;;;-3.72;44.90;99505.66;5121044;28;20064;-60
2022/03/03 01:49:54;;;;;;;2.97;2.05;;;;;;;-3.69;45.12;99493.00;5111105;28;20462;-60
2022/03/03 01:52:27;;;;;;;4.50;1.70;;;;;;;-3.50;44.10;99487.56;5112550;28;20062;-60
2022/03/03 01:54:58;;;;;;;2.65;1.85;;;;;;;-3.22;42.94;99493.44;5118348;28;20043;-60
2022/03/03 01:57:34;;;;;;;2.40;1.35;;;;;;;-3.21;39.93;99441.50;5117415;27;20044;-60
2022/03/03 02:00:07;;;;;;;3.03;1.52;;;;;;;-2.78;39.33;99455.34;5113140;28;20092;-58
2022/03/03 02:02:37;;;;;;;3.45;1.65;;;;;;;-2.47;37.26;99472.28;5113783;28;20047;-59
2022/03/03 02:05:09;;;;;;;1.55;1.45;;;;;;;-2.32;34.85;99461.53;5114735;28;20403;-59
2022/03/03 02:07:42;;;;;;;1.63;1.42;;;;;;;-2.07;33.65;99467.19;5114162;28;20047;-59
2022/03/03 02:10:13;;;;;;;2.20;1.45;;;;;;;-2.11;34.15;99455.16;5115806;28;20078;-59
2022/03/03 02:12:43;;;;;;;2.28;1.42;;;;;;;-2.32;33.20;99456.44;5115548;27;20145;-58
2022/03/03 02:15:18;;;;;;;1.67;1.40;;;;;;;-2.48;33.33;99459.47;5116775;28;20051;-61
2022/03/03 02:17:50;;;;;;;2.60;1.65;;;;;;;-2.57;33.12;99454.13;5116800;28;20039;-61
2022/03/03 02:20:23;;;;;;;2.05;1.50;;;;;;;-2.74;33.54;99452.06;5117044;28;20055;-60
2022/03/03 02:22:54;;;;;;;2.92;1.92;;;;;;;-2.73;33.13;99458.88;5117131;28;20051;-60
2022/03/03 02:25:26;;;;;;;2.60;1.80;;;;;;;-3.05;34.25;99400.16;5116875;28;20079;-60
2022/03/03 02:27:57;;;;;;;3.08;1.70;;;;;;;-2.74;33.79;99446.94;5116206;28;20086;-61
2022/03/03 02:30:28;;;;;;;4.13;1.77;;;;;;;-2.85;35.64;99463.69;5116385;28;20039;-60
2022/03/03 02:32:58;;;;;;;17.45;2.25;;;;;;;-2.87;35.55;99455.13;5116301;28;20047;-61
2022/03/03 02:35:31;;;;;;;3.53;1.95;;;;;;;-3.01;35.82;99446.28;5116455;28;20083;-61
2022/03/03 02:38:02;;;;;;;3.28;1.90;;;;;;;-3.27;35.95;99441.34;5116643;28;20245;-60
2022/03/03 02:40:33;;;;;;;2.92;1.88;;;;;;;-3.28;38.27;99453.25;5116607;28;20059;-59
2022/03/03 02:43:03;;;;;;;2.75;1.90;;;;;;;-3.17;38.93;99447.56;5116411;28;20080;-61
2022/03/03 02:45:34;;;;;;;3.78;2.03;;;;;;;-3.07;38.26;99447.84;5116056;28;20245;-60
2022/03/03 02:48:05;;;;;;;2.05;1.40;;;;;;;-3.00;37.15;99448.84;5116415;28;20059;-60
2022/03/03 02:50:38;;;;;;;1.35;1.25;;;;;;;-2.89;35.30;99441.47;5116213;28;20044;-61
2022/03/03 02:53:09;;;;;;;1.45;1.35;;;;;;;-2.73;33.94;99435.88;5115998;28;20270;-60
2022/03/03 02:55:39;;;;;;;2.55;1.40;;;;;;;-2.53;34.23;99430.34;5115883;28;20082;-61
2022/03/03 02:58:11;;;;;;;3.15;1.67;;;;;;;-2.35;34.67;99410.28;5115903;28;20326;-60
2022/03/03 03:00:43;;;;;;;2.00;1.45;;;;;;;-1.89;36.54;99418.94;5115896;28;20401;-61
2022/03/03 03:03:15;;;;;;;2.45;1.67;;;;;;;-1.55;37.50;99420.47;5115691;28;20342;-61
2022/03/03 03:05:48;;;;;;;3.78;1.90;;;;;;;-1.52;35.33;99411.97;5115901;28;20047;-62
2022/03/03 03:08:19;;;;;;;2.25;1.58;;;;;;;-1.69;34.68;99418.47;5115583;28;20039;-62
2022/03/03 03:10:50;;;;;;;2.70;1.70;;;;;;;-1.66;34.63;99415.97;5115645;28;20281;-62
2022/03/03 03:13:20;;;;;;;1.45;1.35;;;;;;;-1.40;36.35;99417.31;5115008;28;20175;-61
2022/03/03 03:15:51;;;;;;;2.20;1.42;;;;;;;-1.07;36.33;99405.91;5115306;28;20055;-59
2022/03/03 03:18:23;;;;;;;2.03;1.52;;;;;;;-0.79;36.96;99370.44;5115584;28;20110;-61
2022/03/03 03:20:56;;;;;;;2.08;1.40;;;;;;;-0.17;37.24;99401.25;5115474;28;20140;-61
2022/03/03 03:23:27;;;;;;;3.80;1.50;;;;;;;0.03;36.01;99403.22;5115844;28;20051;-61
2022/03/03 03:25:57;;;;;;;2.28;1.60;;;;;;;0.33;35.28;99411.28;5115782;28;20423;-62
2022/03/03 03:28:28;;;;;;;1.33;1.23;;;;;;;0.45;33.63;99399.38;5115273;28;20342;-58
2022/03/03 03:30:59;;;;;;;1.70;1.30;;;;;;;0.38;31.90;99389.06;5115195;28;20114;-60
2022/03/03 03:33:29;;;;;;;2.00;1.45;;;;;;;0.49;32.44;99396.00;5115075;28;20070;-59
2022/03/03 03:36:02;;;;;;;2.65;1.70;;;;;;;0.65;32.80;99392.75;5114975;28;20051;-61
2022/03/03 03:38:32;;;;;;;1.73;1.30;;;;;;;0.71;34.33;99391.94;5114832;28;20058;-61
2022/03/03 03:41:03;;;;;;;3.20;1.75;;;;;;;0.55;34.75;99354.94;5115235;28;20336;-60
2022/03/03 03:43:34;;;;;;;4.00;1.65;;;;;;;0.65;34.54;99372.19;5115116;28;20074;-61
2022/03/03 03:46:05;;;;;;;2.70;1.60;;;;;;;0.37;32.42;99320.50;5114926;28;20047;-61
2022/03/03 03:48:36;;;;;;;2.42;1.30;;;;;;;0.76;34.15;99375.72;5115128;28;20059;-61
2022/03/03 03:51:09;;;;;;;2.45;1.45;;;;;;;0.67;33.54;99334.47;5115098;28;20058;-59
2022/03/03 03:53:39;;;;;;;3.63;1.52;;;;;;;0.82;35.04;99370.63;5115161;28;20059;-61
2022/03/03 03:56:10;;;;;;;2.15;1.20;;;;;;;0.97;34.18;99374.16;5114921;28;20046;-60
2022/03/03 03:58:41;;;;;;;2.13;1.40;;;;;;;0.95;33.64;99370.69;5115081;28;20039;-61
2022/03/03 04:01:11;;;;;;;3.47;1.80;;;;;;;0.77;32.63;99350.84;5114907;28;20141;-60
2022/03/03 04:03:42;;;;;;;3.58;1.50;;;;;;;0.75;33.66;99368.84;5114842;28;20168;-61
2022/03/03 04:06:15;;;;;;;1.52;1.05;;;;;;;0.80;33.29;99364.59;5114952;28;20059;-61
2022/03/03 04:08:47;;;;;;;4.30;2.35;;;;;;;0.90;34.02;99367.25;5114780;28;20389;-61
2022/03/03 04:11:17;;;;;;;1.92;1.27;;;;;;;0.74;33.85;99367.13;5114752;28;20342;-59
2022/03/03 04:13:48;;;;;;;2.78;1.75;;;;;;;0.93;33.89;99362.13;5114426;28;20127;-60
2022/03/03 04:16:19;;;;;;;1.98;1.38;;;;;;;1.04;33.44;99360.50;5114635;28;20059;-61
2022/03/03 04:18:49;;;;;;;2.15;1.35;;;;;;;1.14;32.83;99367.44;5114548;28;20218;-60
2022/03/03 04:21:24;;;;;;;1.92;1.33;;;;;;;1.10;34.33;99332.25;5114545;28;20097;-62
2022/03/03 04:23:55;;;;;;;2.47;1.55;;;;;;;1.35;34.35;99360.69;5114014;28;20051;-61
2022/03/03 04:26:25;;;;;;;2.05;1.40;;;;;;;1.25;33.03;99358.09;5114794;28;20126;-60
2022/03/03 04:28:56;;;;;;;1.83;1.30;;;;;;;1.09;32.97;99358.81;5114594;28;20127;-62
2022/03/03 04:31:27;;;;;;;3.20;1.40;;;;;;;1.08;32.87;99370.81;5111503;28;20405;-62
2022/03/03 04:33:58;;;;;;;4.25;1.67;;;;;;;0.74;33.58;99372.25;5113141;28;20050;-60
2022/03/03 04:36:30;;;;;;;3.45;1.73;;;;;;;0.46;32.30;99378.00;5113797;28;20085;-60
2022/03/03 04:39:01;;;;;;;5.30;1.92;;;;;;;0.19;33.15;99374.28;5113298;28;20047;-59
2022/03/03 04:41:31;;;;;;;2.92;1.63;;;;;;;0.05;34.31;99378.38;5113916;28;20277;-61
2022/03/03 04:44:02;;;;;;;3.45;1.83;;;;;;;-0.17;33.87;99377.28;5114077;28;20059;-61
2022/03/03 04:46:33;;;;;;;4.38;1.75;;;;;;;-0.09;34.29;99380.81;5114108;28;20064;-61
2022/03/03 04:49:04;;;;;;;1.92;1.40;;;;;;;-0.38;33.93;99327.38;5112442;28;20360;-61
2022/03/03 04:51:37;;;;;;;2.65;1.52;;;;;;;-0.35;34.22;99380.47;5112956;28;20819;-60
2022/03/03 04:54:08;;;;;;;2.13;1.50;;;;;;;-0.62;34.30;99378.38;5112709;28;20228;-61
2022/03/03 04:56:40;;;;;;;2.95;1.60;;;;;;;-0.81;34.39;99377.25;5112898;28;20059;-61
2022/03/03 04:59:11;;;;;;;3.35;1.70;;;;;;;-0.99;36.10;99376.13;5113303;28;20162;-60
2022/03/03 05:01:41;;;;;;;3.42;1.88;;;;;;;-0.77;37.30;99376.47;5113185;28;20258;-61
2022/03/03 05:04:13;;;;;;;3.15;1.70;;;;;;;-1.01;34.89;99377.81;5112857;28;20360;-60
2022/03/03 05:06:49;;;;;;;2.42;1.67;;;;;;;-1.16;35.49;99372.44;5112731;28;20060;-60
2022/03/03 05:09:20;;;;;;;3.42;1.98;;;;;;;-1.22;35.78;99374.88;5112890;28;20078;-61
2022/03/03 05:11:50;;;;;;;2.38;1.70;;;;;;;-1.37;35.29;99386.63;5113253;28;20499;-59
2022/03/03 05:14:21;;;;;;;2.70;2.10;;;;;;;-1.37;35.89;99386.63;5112828;28;20052;-61
2022/03/03 05:16:52;;;;;;;2.45;1.58;;;;;;;-1.18;35.85;99376.66;5112984;28;20850;-60
2022/03/03 05:19:22;;;;;;;3.15;2.08;;;;;;;-0.88;35.08;99381.41;5112973;28;20081;-59
2022/03/03 05:21:54;;;;;;;5.65;2.22;;;;;;;-0.95;35.31;99344.56;5112725;28;20311;-59
2022/03/03 05:24:25;;;;;;;3.70;2.10;;;;;;;-0.50;34.09;99384.56;5112884;28;20056;-58
2022/03/03 05:26:56;;;;;;;5.53;2.17;;;;;;;-0.51;34.08;99393.09;5112920;28;20063;-59
2022/03/03 05:29:27;;;;;;;3.92;2.20;;;;;;;-0.67;33.68;99394.56;5113161;28;20078;-60
2022/03/03 05:31:58;;;;;;;4.38;2.20;;;;;;;-1.17;32.18;99398.91;5113924;28;20103;-60
2022/03/03 05:34:29;;;;;;;2.70;1.90;;;;;;;-1.55;31.99;99386.25;5114313;28;20060;-60
2022/03/03 05:37:02;;;;;;;4.38;1.63;;;;;;;-1.48;31.17;99402.63;5115147;28;20058;-60
2022/03/03 05:39:40;;;;;;;2.42;1.60;;;;;;;-1.65;31.78;99399.75;5117029;28;20052;-59
2022/03/03 05:42:12;;;;;;;2.33;1.63;;;;;;;-1.94;32.53;99402.63;5117316;28;20063;-61
2022/03/03 05:44:44;;;;;;;2.47;1.60;;;;;;;-2.24;34.45;99398.59;5117010;28;20254;-60
2022/03/03 05:47:16;;;;;;;5.68;1.60;;;;;;;-2.56;36.24;99405.56;5113806;28;20085;-60
2022/03/03 05:49:50;;;;;;;1.70;1.40;;;;;;;-2.73;37.34;99402.63;5116672;28;20341;-60
2022/03/03 05:52:23;;;;;;;2.47;1.50;;;;;;;-2.76;37.27;99407.69;5117299;28;20067;-60
2022/03/03 05:54:54;;;;;;;1.75;1.60;;;;;;;-2.78;37.41;99408.47;5116174;28;20116;-59
2022/03/03 05:57:34;;;;;;;2.30;1.63;;;;;;;-3.03;37.23;99362.72;5116859;28;20123;-58
2022/03/03 06:00:08;;;;;;;3.13;1.60;;;;;;;-2.74;37.49;99403.47;5116638;28;20337;-58
2022/03/03 06:02:41;;;;;;;1.95;1.50;;;;;;;-2.63;37.54;99419.91;5117015;28;20081;-58
2022/03/03 06:05:13;;;;;;;2.67;1.80;;;;;;;-2.70;38.88;99427.41;5116363;28;20106;-58
2022/03/03 06:07:51;;;;;;;2.70;1.65;;;;;;;-2.57;40.46;99433.66;5116864;28;20058;-58
2022/03/03 06:10:24;;;;;;;2.00;1.75;;;;;;;-2.42;41.36;99429.78;5116842;28;20079;-58
2022/03/03 06:13:07;;;;;;;2.10;1.70;;;;;;;-2.36;42.11;99439.28;5116508;28;20043;-60
2022/03/03 06:15:39;;;;;;;3.20;1.60;;;;;;;-2.38;41.61;99440.94;5116556;28;20048;-58
2022/03/03 06:18:11;;;;;;;2.10;1.58;;;;;;;-2.44;41.43;99440.81;5116498;28;20119;-58
2022/03/03 06:20:45;;;;;;;2.60;1.70;;;;;;;-2.45;41.17;99449.28;5116784;28;20114;-61
2022/03/03 06:23:17;;;;;;;3.00;1.67;;;;;;;-2.45;42.43;99439.91;5116495;28;20051;-58
2022/03/03 06:25:51;;;;;;;3.28;1.90;;;;;;;-2.32;42.26;99448.75;5116389;28;20056;-58
2022/03/03 06:28:22;;;;;;;4.38;1.63;;;;;;;-2.20;43.18;99455.81;5116392;28;20123;-58
2022/03/03 06:30:53;;;;;;;1.88;1.38;;;;;;;-2.04;44.10;99454.47;5116277;28;20065;-59
2022/03/03 06:33:24;;;;;;;3.05;1.80;;;;;;;-1.85;43.90;99459.13;5115999;28;20059;-59
2022/03/03 06:35:55;;;;;;;4.65;1.95;;;;;;;-1.71;44.05;99450.88;5113980;28;20060;-61
2022/03/03 06:38:28;;;;;;;9.93;2.33;;;;;;;-1.60;44.94;99459.59;5115143;28;20126;-59
2022/03/03 06:40:59;;;;;;;4.10;1.67;;;;;;;-1.66;44.49;99459.50;5115389;28;20334;-59
2022/03/03 06:43:30;;;;;;;4.10;1.50;;;;;;;-1.74;44.29;99465.34;5115369;28;20075;-59
2022/03/03 06:46:01;;;;;;;7.80;3.20;;;;;;;-2.44;44.57;99358.94;5115605;28;20066;-59
2022/03/03 06:48:32;;;;;;;2.28;1.60;;;;;;;-1.92;45.09;99467.53;5115030;28;20212;-59
2022/03/03 06:51:06;;;;;;;7.38;2.97;;;;;;;-2.30;44.92;99453.88;5115466;28;20172;-59
2022/03/03 06:53:41;;;;;;;7.20;2.28;;;;;;;-2.36;45.24;99481.91;5114928;28;20352;-58
2022/03/03 06:56:14;;;;;;;2.28;1.60;;;;;;;-2.65;45.66;99480.38;5115062;28;20110;-59
2022/03/03 06:58:45;;;;;;;2.45;1.70;;;;;;;-2.74;46.95;99482.72;5114942;28;20836;-58
2022/03/03 07:01:16;;;;;;;2.42;1.70;;;;;;;-2.73;47.58;99484.44;5115117;28;20047;-59
2022/03/03 07:03:47;;;;;;;1.67;1.40;;;;;;;-2.84;47.52;99480.78;5114632;28;20059;-61
2022/03/03 07:06:18;;;;;;;2.80;1.60;;;;;;;-2.92;48.26;99492.47;5114727;28;20058;-60
2022/03/03 07:08:55;;;;;;;2.08;1.60;;;;;;;-3.42;48.79;99433.28;5113530;27;20082;-59
2022/03/03 07:11:25;;;;;;;2.88;1.80;;;;;;;-3.21;49.28;99505.38;5114335;28;20150;-59
2022/03/03 07:13:59;;;;;;;2.05;1.67;;;;;;;-3.32;49.99;99506.78;5114038;28;20081;-59
2022/03/03 07:16:40;;;;;;;4.00;2.20;;;;;;;-3.50;50.27;99512.25;5114336;28;20051;-59
2022/03/03 07:19:35;;;;;;;10.45;6.80;;;;;;;-3.62;50.71;99512.78;5114665;28;20052;-59
2022/03/03 07:22:20;;;;;;;4.93;3.38;;;;;;;-3.65;51.39;99522.91;5114722;28;20047;-59
2022/03/03 07:24:59;;;;;;;5.93;2.65;;;;;;;-3.73;50.81;99519.28;5115018;28;20059;-59
2022/03/03 07:27:30;;;;;;;6.10;2.78;;;;;;;-3.88;50.38;99526.47;5115091;28;20293;-59
2022/03/03 07:30:04;;;;;;;6.55;2.38;;;;;;;-4.48;50.61;99443.91;5115162;28;20097;-59
2022/03/03 07:32:36;;;;;;;2.92;2.10;;;;;;;-4.20;50.70;99517.03;5115069;28;20078;-58
2022/03/03 07:35:14;;;;;;;4.85;2.33;;;;;;;-4.08;51.44;99525.88;5113225;28;20056;-59
2022/03/03 07:37:54;;;;;;;4.05;2.25;;;;;;;-4.05;52.05;99531.94;5112780;28;20047;-59
2022/03/03 07:40:29;;;;;;;6.53;2.53;;;;;;;-4.17;51.92;99516.25;5115076;28;20118;-58
2022/03/03 07:43:00;;;;;;;3.25;1.90;;;;;;;-4.26;50.98;99533.84;5115146;28;20334;-58
2022/03/03 07:45:31;;;;;;;4.22;1.75;;;;;;;-4.50;50.87;99547.53;5115352;28;20049;-58
2022/03/03 07:48:02;;;;;;;9.98;5.20;;;;;;;-4.52;51.40;99541.50;5114282;28;20086;-57
2022/03/03 07:50:39;;;;;;;10.48;5.05;;;;;;;-4.76;50.91;99533.97;5115008;28;20082;-58
2022/03/03 07:53:11;;;;;;;8.50;4.05;;;;;;;-4.82;51.93;99529.53;5114715;28;20074;-58
2022/03/03 07:55:47;;;;;;;5.78;3.25;;;;;;;-5.07;54.18;99476.00;5114556;28;20047;-58
2022/03/03 07:58:20;;;;;;;9.57;4.90;;;;;;;-4.61;53.79;99548.88;5113931;28;20043;-58
2022/03/03 08:00:53;;;;;;;15.05;5.53;;;;;;;-4.70;55.50;99528.19;5114937;28;20058;-58
2022/03/03 08:03:25;;;;;;;12.43;4.55;;;;;;;-5.16;53.61;99465.53;5114615;28;20051;-57
2022/03/03 08:05:58;;;;;;;12.05;4.80;;;;;;;-5.93;52.15;99392.47;5113693;28;20078;-57
2022/03/03 08:08:31;;;;;;;10.23;4.63;;;;;;;-5.20;52.72;99552.00;5113926;28;20086;-58
2022/03/03 08:11:06;;;;;;;8.27;3.55;;;;;;;-5.33;53.91;99547.28;5114118;28;20074;-58
2022/03/03 08:13:37;;;;;;;6.10;2.92;;;;;;;-5.47;54.21;99551.00;5114633;28;20059;-58
2022/03/03 08:16:08;;;;;;;10.13;4.38;;;;;;;-5.51;54.75;99564.47;5114843;28;20081;-58
2022/03/03 08:18:39;;;;;;;15.68;5.63;;;;;;;-5.57;55.01;99569.31;5114310;28;20055;-58
2022/03/03 08:21:10;;;;;;;26.88;7.85;;;;;;;-5.78;55.59;99560.06;5114510;28;20066;-58
2022/03/03 08:23:41;;;;;;;23.75;6.82;;;;;;;-5.90;55.50;99564.69;5114227;28;20054;-58
2022/03/03 08:26:14;;;;;;;23.13;5.93;;;;;;;-6.19;54.97;99561.06;5114549;28;20107;-57
2022/03/03 08:28:44;;;;;;;16.23;6.18;;;;;;;-6.37;55.33;99561.19;5114114;28;20056;-57
2022/03/03 08:31:21;;;;;;;14.20;6.03;;;;;;;-6.24;55.10;99568.53;5113403;28;20066;-57
2022/03/03 08:33:55;;;;;;;11.48;5.22;;;;;;;-6.35;53.97;99569.75;5114327;28;20051;-58
2022/03/03 08:36:32;;;;;;;16.13;5.25;;;;;;;-6.44;54.39;99579.56;5113249;28;20051;-57
2022/03/03 08:39:06;;;;;;;14.68;5.15;;;;;;;-6.65;54.55;99577.88;5113108;28;20059;-58
2022/03/03 08:41:40;;;;;;;10.13;3.88;;;;;;;-6.93;54.46;99582.63;5113966;28;20071;-57
2022/03/03 08:44:12;;;;;;;9.13;3.78;;;;;;;-7.21;55.50;99589.94;5114186;28;20396;-58
2022/03/03 08:46:44;;;;;;;8.77;3.90;;;;;;;-7.40;55.80;99600.94;5114346;28;20295;-57
2022/03/03 08:49:16;;;;;;;4.78;2.80;;;;;;;-7.65;55.63;99603.19;5113417;28;20050;-57
2022/03/03 08:51:46;;;;;;;5.13;2.80;;;;;;;-7.86;55.97;99614.09;5113693;28;20051;-57
2022/03/03 08:54:17;;;;;;;6.60;3.67;;;;;;;-8.38;55.91;99618.34;5114113;28;20090;-56
2022/03/03 08:56:49;;;;;;;5.32;3.40;;;;;;;-8.78;57.13;99624.88;5114156;28;20055;-54
2022/03/03 08:59:20;;;;;;;30.63;14.13;;;;;;;-9.02;57.86;99628.72;5113605;28;20051;-55
2022/03/03 09:01:53;;;;;;;31.50;14.25;;;;;;;-9.06;59.30;99626.81;5113947;28;20071;-57
2022/03/03 09:04:25;;;;;;;38.80;17.23;;;;;;;-9.18;59.56;99635.53;5113950;28;20060;-57
2022/03/03 09:06:56;;;;;;;17.67;8.15;;;;;;;-9.24;60.20;99632.66;5114151;28;20393;-55
2022/03/03 09:09:27;;;;;;;6.03;3.72;;;;;;;-9.36;60.66;99637.06;5113079;28;20044;-56
2022/03/03 09:12:06;;;;;;;7.97;3.85;;;;;;;-9.50;60.66;99638.03;5117173;27;20098;-56
2022/03/03 09:14:37;;;;;;;8.85;4.07;;;;;;;-9.61;61.04;99650.06;5117679;28;20254;-55
2022/03/03 09:17:07;;;;;;;3.83;2.83;;;;;;;-9.64;61.35;99655.84;5116903;28;20057;-56
2022/03/03 09:19:39;;;;;;;4.93;2.80;;;;;;;-10.18;61.38;99593.06;5118320;27;20114;-57
2022/03/03 09:22:09;;;;;;;10.63;5.10;;;;;;;-10.17;62.02;99656.31;5117566;28;20136;-54
2022/03/03 09:24:40;;;;;;;51.35;15.02;;;;;;;-10.34;63.12;99667.16;5117524;28;20115;-57
2022/03/03 09:27:13;;;;;;;85.32;23.50;;;;;;;-10.36;63.96;99669.56;5118021;28;20070;-56
2022/03/03 09:29:43;;;;;;;128.40;32.75;;;;;;;-10.34;64.23;99672.19;5117717;28;20086;-56
2022/03/03 09:32:14;;;;;;;131.18;30.25;;;;;;;-10.35;64.63;99675.53;5118233;28;20126;-54
2022/03/03 09:34:45;;;;;;;71.18;19.02;;;;;;;-10.47;65.43;99670.63;5116471;28;20044;-54
2022/03/03 09:37:16;;;;;;;92.40;30.08;;;;;;;-10.42;65.98;99680.22;5116429;28;20107;-56
2022/03/03 09:39:49;;;;;;;98.07;29.02;;;;;;;-10.47;65.78;99683.25;5117590;28;20060;-57
2022/03/03 09:42:22;;;;;;;45.97;16.20;;;;;;;-10.51;66.10;99689.78;5117528;28;20059;-54
2022/03/03 09:44:55;;;;;;;17.52;8.13;;;;;;;-10.88;65.84;99627.09;5117065;28;20044;-56
2022/03/03 09:47:26;;;;;;;30.50;10.63;;;;;;;-10.44;66.19;99689.34;5117157;28;20066;-54
2022/03/03 09:49:57;;;;;;;22.77;9.18;;;;;;;-10.38;66.21;99680.38;5117016;28;20280;-56
2022/03/03 09:52:30;;;;;;;18.58;7.32;;;;;;;-10.48;66.60;99679.88;5117004;28;20055;-55
2022/03/03 09:55:01;;;;;;;52.72;19.80;;;;;;;-11.26;66.43;99560.91;5117485;28;20047;-55
2022/03/03 09:57:35;;;;;;;17.52;9.35;;;;;;;-10.48;66.75;99692.50;5117040;28;20047;-56
2022/03/03 10:00:08;;;;;;;8.00;4.93;;;;;;;-10.45;66.46;99687.63;5116372;28;20111;-53
2022/03/03 10:03:00;;;;;;;5.10;4.03;;;;;;;-10.69;66.40;99693.75;5116903;28;20055;-56
2022/03/03 10:05:37;;;;;;;11.85;4.85;;;;;;;-10.88;66.53;99705.31;5117149;28;20051;-55
2022/03/03 10:08:10;;;;;;;5.85;4.30;;;;;;;-10.94;66.85;99701.53;5113422;28;20106;-54
2022/03/03 10:10:43;;;;;;;42.88;17.63;;;;;;;-11.12;67.78;99696.28;5096483;28;20084;-54
2022/03/03 10:13:16;;;;;;;69.38;24.77;;;;;;;-11.16;68.07;99705.28;5096527;28;20055;-53
2022/03/03 10:15:51;;;;;;;12.50;6.13;;;;;;;-11.92;68.75;99585.59;5096509;28;20327;-56
2022/03/03 10:18:23;;;;;;;8.35;4.60;;;;;;;-11.25;69.12;99698.84;5096129;28;20078;-56
2022/03/03 10:20:55;;;;;;;48.15;17.25;;;;;;;-11.41;69.56;99667.63;5096308;28;20120;-58
2022/03/03 10:23:28;;;;;;;38.75;12.32;;;;;;;-11.78;69.59;99599.88;5096183;28;20052;-55
2022/03/03 10:26:00;;;;;;;36.17;12.45;;;;;;;-11.26;69.90;99697.94;5095538;28;20079;-53
2022/03/03 10:28:35;;;;;;;81.53;25.83;;;;;;;-11.38;69.80;99687.09;5096176;28;20295;-52
2022/03/03 10:31:07;;;;;;;66.57;21.42;;;;;;;-11.45;70.00;99677.47;5095966;28;20074;-52
2022/03/03 10:33:40;;;;;;;172.13;54.45;;;;;;;-11.35;70.21;99703.31;5094699;28;20089;-56
2022/03/03 10:36:13;;;;;;;121.78;38.88;;;;;;;-11.43;70.26;99680.91;5095834;28;20044;-54
2022/03/03 10:39:02;;;;;;;55.88;16.67;;;;;;;-11.23;70.28;99707.34;5096002;28;20056;-54
2022/03/03 10:41:41;;;;;;;14.65;6.10;;;;;;;-11.29;70.45;99708.72;5094964;28;20066;-55
2022/03/03 10:44:15;;;;;;;10.70;4.30;;;;;;;-11.42;70.62;99698.66;5095341;28;20044;-54
2022/03/03 10:47:05;;;;;;;3.95;3.13;;;;;;;-11.47;70.97;99701.69;5094333;28;20107;-55
2022/03/03 10:49:37;;;;;;;7.10;4.18;;;;;;;-11.48;71.16;99710.03;5095635;28;20052;-55
2022/03/03 10:52:16;;;;;;;8.15;4.25;;;;;;;-11.36;71.33;99705.72;5095784;28;20127;-55
2022/03/03 10:54:52;;;;;;;4.32;3.20;;;;;;;-11.23;71.27;99704.81;5095721;28;20234;-55
2022/03/03 10:57:42;;;;;;;3.78;3.38;;;;;;;-11.18;71.28;99703.44;5093366;28;20397;-52
2022/03/03 11:00:20;;;;;;;5.35;3.50;;;;;;;-10.82;71.38;99721.59;5094374;28;20065;-55
2022/03/03 11:02:52;;;;;;;4.53;3.30;;;;;;;-10.66;71.23;99724.22;5095363;28;20040;-54
2022/03/03 11:05:25;;;;;;;5.50;2.85;;;;;;;-10.62;70.93;99721.13;5095662;28;20048;-55
2022/03/03 11:07:57;;;;;;;3.05;2.72;;;;;;;-10.68;70.57;99725.81;5094902;28;20051;-54
2022/03/03 11:10:30;;;;;;;4.05;2.50;;;;;;;-10.83;70.97;99707.22;5094747;28;20373;-56
2022/03/03 11:13:01;;;;;;;5.03;2.67;;;;;;;-10.67;71.39;99722.50;5095387;28;20079;-54
2022/03/03 11:15:34;;;;;;;4.63;2.75;;;;;;;-10.89;71.39;99685.88;5095455;28;20068;-55
2022/03/03 11:18:05;;;;;;;2.97;2.22;;;;;;;-10.59;71.43;99726.34;5095282;28;20350;-54
2022/03/03 11:20:36;;;;;;;4.88;2.75;;;;;;;-10.62;71.61;99723.63;5095424;28;20387;-55
2022/03/03 11:23:07;;;;;;;3.90;3.03;;;;;;;-10.87;71.45;99661.63;5094893;28;20085;-56
2022/03/03 11:25:38;;;;;;;3.95;3.55;;;;;;;-10.44;71.47;99724.69;5095124;28;20061;-54
2022/03/03 11:28:14;;;;;;;4.38;3.03;;;;;;;-10.47;71.05;99709.38;5094620;28;20087;-56
2022/03/03 11:30:48;;;;;;;11.27;5.50;;;;;;;-10.52;70.92;99683.00;5094937;28;20087;-56
2022/03/03 11:33:24;;;;;;;11.95;7.10;;;;;;;-10.13;71.09;99730.59;5094446;28;20324;-56
2022/03/03 11:36:01;;;;;;;11.00;6.15;;;;;;;-9.93;70.95;99730.09;5094758;28;20055;-56
2022/03/03 11:38:47;;;;;;;4.47;3.60;;;;;;;-9.95;70.64;99723.22;5094907;28;20040;-56
2022/03/03 11:41:19;;;;;;;4.78;3.10;;;;;;;-9.72;70.51;99738.00;5094559;28;20286;-55
2022/03/03 11:43:59;;;;;;;7.60;3.30;;;;;;;-9.90;70.01;99697.41;5095146;28;20062;-58
2022/03/03 11:46:47;;;;;;;;;;;;;;;-9.68;69.06;99744.97;5095375;28;20072;-57
2022/03/03 11:49:20;;;;;;;16.92;6.28;;;;;;;-9.83;68.47;99752.59;5094585;28;19954;-53
2022/03/03 11:51:52;;;;;;;13.73;5.78;;;;;;;-9.88;68.12;99750.56;5093771;28;20074;-49
2022/03/03 11:54:29;;;;;;;12.20;5.60;;;;;;;-10.77;67.85;99620.13;5094200;28;20358;-53